sensor_id;sensor_type;location;lat;lon;timestamp;temperature;humidity
9323;DHT22;4700;48.822;9.270;2022-08-25T00:00:05;20.00;1.00
9323;DHT22;4700;48.822;9.270;2022-08-25T00:02:53;19.90;1.00
9323;DHT22;4700;48.822;9.270;2022-08-25T00:05:40;19.90;1.00
9323;DHT22;4700;48.822;9.270;2022-08-25T00:08:27;19.80;1.00
9323;DHT22;4700;48.822;9.270;2022-08-25T00:11:16;19.70;1.00
9323;DHT22;4700;48.822;9.270;2022-08-25T00:14:06;19.70;1.00
9323;DHT22;4700;48.822;9.270;2022-08-25T00:16:52;19.70;1.00
9323;DHT22;4700;48.822;9.270;2022-08-25T00:19:37;19.60;1.00
9323;DHT22;4700;48.822;9.270;2022-08-25T00:22:23;19.60;1.00
9323;DHT22;4700;48.822;9.270;2022-08-25T00:25:10;19.60;1.00
9323;DHT22;4700;48.822;9.270;2022-08-25T00:27:56;19.60;1.00
9323;DHT22;4700;48.822;9.270;2022-08-25T00:30:42;19.60;1.00
9323;DHT22;4700;48.822;9.270;2022-08-25T00:33:29;19.60;1.00
9323;DHT22;4700;48.822;9.270;2022-08-25T00:36:15;19.60;1.00
9323;DHT22;4700;48.822;9.270;2022-08-25T00:39:02;19.50;1.00
9323;DHT22;4700;48.822;9.270;2022-08-25T00:41:51;19.50;1.00
9323;DHT22;4700;48.822;9.270;2022-08-25T00:44:38;19.40;1.00
9323;DHT22;4700;48.822;9.270;2022-08-25T00:47:24;19.40;1.00
9323;DHT22;4700;48.822;9.270;2022-08-25T00:50:10;19.30;1.00
9323;DHT22;4700;48.822;9.270;2022-08-25T00:53:00;19.30;1.00
9323;DHT22;4700;48.822;9.270;2022-08-25T00:55:46;19.30;1.00
9323;DHT22;4700;48.822;9.270;2022-08-25T00:58:34;19.20;1.00
9323;DHT22;4700;48.822;9.270;2022-08-25T01:01:20;19.20;1.00
9323;DHT22;4700;48.822;9.270;2022-08-25T01:04:09;19.10;1.00
9323;DHT22;4700;48.822;9.270;2022-08-25T01:06:55;19.20;1.00
9323;DHT22;4700;48.822;9.270;2022-08-25T01:09:46;19.20;1.00
9323;DHT22;4700;48.822;9.270;2022-08-25T01:12:33;19.20;1.00
9323;DHT22;4700;48.822;9.270;2022-08-25T01:15:23;19.20;1.00
9323;DHT22;4700;48.822;9.270;2022-08-25T01:18:09;19.20;1.00
9323;DHT22;4700;48.822;9.270;2022-08-25T01:20:58;19.20;1.00
9323;DHT22;4700;48.822;9.270;2022-08-25T01:23:44;19.10;1.00
9323;DHT22;4700;48.822;9.270;2022-08-25T01:26:32;19.10;1.00
9323;DHT22;4700;48.822;9.270;2022-08-25T01:29:18;19.10;1.00
9323;DHT22;4700;48.822;9.270;2022-08-25T01:32:10;19.00;1.00
9323;DHT22;4700;48.822;9.270;2022-08-25T01:34:57;19.00;1.00
9323;DHT22;4700;48.822;9.270;2022-08-25T01:37:44;18.90;1.00
9323;DHT22;4700;48.822;9.270;2022-08-25T01:40:31;18.90;1.00
9323;DHT22;4700;48.822;9.270;2022-08-25T01:43:26;18.80;1.00
9323;DHT22;4700;48.822;9.270;2022-08-25T01:46:14;18.80;1.00
9323;DHT22;4700;48.822;9.270;2022-08-25T01:49:00;18.80;1.00
9323;DHT22;4700;48.822;9.270;2022-08-25T01:51:50;18.70;1.00
9323;DHT22;4700;48.822;9.270;2022-08-25T01:54:37;18.70;1.00
9323;DHT22;4700;48.822;9.270;2022-08-25T01:57:23;18.70;1.00
9323;DHT22;4700;48.822;9.270;2022-08-25T02:00:11;18.60;1.00
9323;DHT22;4700;48.822;9.270;2022-08-25T02:02:57;18.50;1.00
9323;DHT22;4700;48.822;9.270;2022-08-25T02:05:43;18.40;1.00
9323;DHT22;4700;48.822;9.270;2022-08-25T02:08:29;18.40;1.00
9323;DHT22;4700;48.822;9.270;2022-08-25T02:11:16;18.40;1.00
9323;DHT22;4700;48.822;9.270;2022-08-25T02:14:01;18.40;1.00
9323;DHT22;4700;48.822;9.270;2022-08-25T02:16:49;18.40;1.00
9323;DHT22;4700;48.822;9.270;2022-08-25T02:19:34;18.30;1.00
9323;DHT22;4700;48.822;9.270;2022-08-25T02:22:20;18.30;1.00
9323;DHT22;4700;48.822;9.270;2022-08-25T02:25:07;18.30;1.00
9323;DHT22;4700;48.822;9.270;2022-08-25T02:27:55;18.30;1.00
9323;DHT22;4700;48.822;9.270;2022-08-25T02:30:42;18.30;1.00
9323;DHT22;4700;48.822;9.270;2022-08-25T02:33:28;18.30;1.00
9323;DHT22;4700;48.822;9.270;2022-08-25T02:36:14;18.20;1.00
9323;DHT22;4700;48.822;9.270;2022-08-25T02:39:00;18.20;1.00
9323;DHT22;4700;48.822;9.270;2022-08-25T02:41:46;18.20;1.00
9323;DHT22;4700;48.822;9.270;2022-08-25T02:44:34;18.10;1.00
9323;DHT22;4700;48.822;9.270;2022-08-25T02:47:20;18.10;1.00
9323;DHT22;4700;48.822;9.270;2022-08-25T02:50:09;18.10;1.00
9323;DHT22;4700;48.822;9.270;2022-08-25T02:52:55;18.10;1.00
9323;DHT22;4700;48.822;9.270;2022-08-25T02:55:41;18.00;1.00
9323;DHT22;4700;48.822;9.270;2022-08-25T02:58:26;18.00;1.00
9323;DHT22;4700;48.822;9.270;2022-08-25T03:01:15;17.90;1.00
9323;DHT22;4700;48.822;9.270;2022-08-25T03:04:02;18.00;1.00
9323;DHT22;4700;48.822;9.270;2022-08-25T03:06:48;17.90;1.00
9323;DHT22;4700;48.822;9.270;2022-08-25T03:09:33;17.80;1.00
9323;DHT22;4700;48.822;9.270;2022-08-25T03:12:19;17.80;1.00
9323;DHT22;4700;48.822;9.270;2022-08-25T03:15:06;17.70;1.00
9323;DHT22;4700;48.822;9.270;2022-08-25T03:17:54;17.60;1.00
9323;DHT22;4700;48.822;9.270;2022-08-25T03:20:41;17.60;1.00
9323;DHT22;4700;48.822;9.270;2022-08-25T03:23:29;17.50;1.00
9323;DHT22;4700;48.822;9.270;2022-08-25T03:26:17;17.40;1.00
9323;DHT22;4700;48.822;9.270;2022-08-25T03:29:22;17.40;1.00
9323;DHT22;4700;48.822;9.270;2022-08-25T03:32:08;17.30;1.00
9323;DHT22;4700;48.822;9.270;2022-08-25T03:34:55;17.20;1.00
9323;DHT22;4700;48.822;9.270;2022-08-25T03:37:41;17.20;1.00
9323;DHT22;4700;48.822;9.270;2022-08-25T03:40:27;17.10;1.00
9323;DHT22;4700;48.822;9.270;2022-08-25T03:43:13;17.00;1.00
9323;DHT22;4700;48.822;9.270;2022-08-25T03:45:58;17.00;1.00
9323;DHT22;4700;48.822;9.270;2022-08-25T03:48:44;16.90;1.00
9323;DHT22;4700;48.822;9.270;2022-08-25T03:51:33;16.90;1.00
9323;DHT22;4700;48.822;9.270;2022-08-25T03:54:23;16.90;1.00
9323;DHT22;4700;48.822;9.270;2022-08-25T03:57:10;16.90;1.00
9323;DHT22;4700;48.822;9.270;2022-08-25T03:59:55;16.90;1.00
9323;DHT22;4700;48.822;9.270;2022-08-25T04:02:41;16.90;1.00
9323;DHT22;4700;48.822;9.270;2022-08-25T04:05:27;16.90;1.00
9323;DHT22;4700;48.822;9.270;2022-08-25T04:08:13;16.90;1.00
9323;DHT22;4700;48.822;9.270;2022-08-25T04:10:49;16.90;1.00
9323;DHT22;4700;48.822;9.270;2022-08-25T04:13:35;16.80;1.00
9323;DHT22;4700;48.822;9.270;2022-08-25T04:16:22;16.90;1.00
9323;DHT22;4700;48.822;9.270;2022-08-25T04:19:09;16.90;1.00
9323;DHT22;4700;48.822;9.270;2022-08-25T04:21:55;17.00;1.00
9323;DHT22;4700;48.822;9.270;2022-08-25T04:24:42;17.10;1.00
9323;DHT22;4700;48.822;9.270;2022-08-25T04:27:27;17.10;1.00
9323;DHT22;4700;48.822;9.270;2022-08-25T04:30:14;17.20;1.00
9323;DHT22;4700;48.822;9.270;2022-08-25T04:32:59;17.20;1.00
9323;DHT22;4700;48.822;9.270;2022-08-25T04:35:48;17.20;1.00
9323;DHT22;4700;48.822;9.270;2022-08-25T04:38:34;17.20;1.00
9323;DHT22;4700;48.822;9.270;2022-08-25T04:41:22;17.10;1.00
9323;DHT22;4700;48.822;9.270;2022-08-25T04:44:08;17.10;1.00
9323;DHT22;4700;48.822;9.270;2022-08-25T04:46:54;17.10;1.00
9323;DHT22;4700;48.822;9.270;2022-08-25T04:49:40;17.10;1.00
9323;DHT22;4700;48.822;9.270;2022-08-25T04:52:26;17.10;1.00
9323;DHT22;4700;48.822;9.270;2022-08-25T04:55:12;17.10;1.00
9323;DHT22;4700;48.822;9.270;2022-08-25T04:57:59;17.10;1.00
9323;DHT22;4700;48.822;9.270;2022-08-25T05:00:44;17.20;1.00
9323;DHT22;4700;48.822;9.270;2022-08-25T05:03:30;17.20;1.00
9323;DHT22;4700;48.822;9.270;2022-08-25T05:06:16;17.20;1.00
9323;DHT22;4700;48.822;9.270;2022-08-25T05:09:03;17.20;1.00
9323;DHT22;4700;48.822;9.270;2022-08-25T05:11:49;17.20;1.00
9323;DHT22;4700;48.822;9.270;2022-08-25T05:14:39;17.30;1.00
9323;DHT22;4700;48.822;9.270;2022-08-25T05:17:25;17.30;1.00
9323;DHT22;4700;48.822;9.270;2022-08-25T05:20:11;17.40;1.00
9323;DHT22;4700;48.822;9.270;2022-08-25T05:22:57;17.40;1.00
9323;DHT22;4700;48.822;9.270;2022-08-25T05:25:42;17.40;1.00
9323;DHT22;4700;48.822;9.270;2022-08-25T05:28:28;17.40;1.00
9323;DHT22;4700;48.822;9.270;2022-08-25T05:31:15;17.40;1.00
9323;DHT22;4700;48.822;9.270;2022-08-25T05:34:05;17.40;1.00
9323;DHT22;4700;48.822;9.270;2022-08-25T05:36:50;17.50;1.00
9323;DHT22;4700;48.822;9.270;2022-08-25T05:39:36;17.50;1.00
9323;DHT22;4700;48.822;9.270;2022-08-25T05:42:22;17.60;1.00
9323;DHT22;4700;48.822;9.270;2022-08-25T05:45:08;17.70;1.00
9323;DHT22;4700;48.822;9.270;2022-08-25T05:47:55;17.80;1.00
9323;DHT22;4700;48.822;9.270;2022-08-25T05:50:41;17.90;1.00
9323;DHT22;4700;48.822;9.270;2022-08-25T05:53:35;17.90;1.00
9323;DHT22;4700;48.822;9.270;2022-08-25T05:56:22;18.00;1.00
9323;DHT22;4700;48.822;9.270;2022-08-25T05:59:08;18.10;1.00
9323;DHT22;4700;48.822;9.270;2022-08-25T06:01:54;18.20;1.00
9323;DHT22;4700;48.822;9.270;2022-08-25T06:04:58;18.30;1.00
9323;DHT22;4700;48.822;9.270;2022-08-25T06:07:44;18.40;1.00
9323;DHT22;4700;48.822;9.270;2022-08-25T06:10:31;18.50;1.00
9323;DHT22;4700;48.822;9.270;2022-08-25T06:13:19;18.60;1.00
9323;DHT22;4700;48.822;9.270;2022-08-25T06:16:05;18.60;1.00
9323;DHT22;4700;48.822;9.270;2022-08-25T06:18:51;18.70;1.00
9323;DHT22;4700;48.822;9.270;2022-08-25T06:21:41;18.70;1.00
9323;DHT22;4700;48.822;9.270;2022-08-25T06:24:28;18.80;1.00
9323;DHT22;4700;48.822;9.270;2022-08-25T06:27:13;19.00;1.00
9323;DHT22;4700;48.822;9.270;2022-08-25T06:29:59;19.20;1.00
9323;DHT22;4700;48.822;9.270;2022-08-25T06:32:47;19.50;1.00
9323;DHT22;4700;48.822;9.270;2022-08-25T06:35:33;19.70;1.00
9323;DHT22;4700;48.822;9.270;2022-08-25T06:38:21;19.90;1.00
9323;DHT22;4700;48.822;9.270;2022-08-25T06:41:07;20.20;1.00
9323;DHT22;4700;48.822;9.270;2022-08-25T06:43:53;20.40;1.00
9323;DHT22;4700;48.822;9.270;2022-08-25T06:46:42;20.70;1.00
9323;DHT22;4700;48.822;9.270;2022-08-25T06:49:28;21.10;1.00
9323;DHT22;4700;48.822;9.270;2022-08-25T06:55:01;22.50;1.00
9323;DHT22;4700;48.822;9.270;2022-08-25T06:57:47;26.00;1.00
9323;DHT22;4700;48.822;9.270;2022-08-25T07:00:38;26.80;1.00
9323;DHT22;4700;48.822;9.270;2022-08-25T07:03:24;27.60;1.00
9323;DHT22;4700;48.822;9.270;2022-08-25T07:06:10;29.20;1.00
9323;DHT22;4700;48.822;9.270;2022-08-25T07:11:29;30.70;1.00
9323;DHT22;4700;48.822;9.270;2022-08-25T07:14:17;31.30;1.00
9323;DHT22;4700;48.822;9.270;2022-08-25T07:17:03;32.00;1.00
9323;DHT22;4700;48.822;9.270;2022-08-25T07:19:49;31.60;1.00
9323;DHT22;4700;48.822;9.270;2022-08-25T07:22:35;32.70;1.00
9323;DHT22;4700;48.822;9.270;2022-08-25T07:25:21;32.60;1.00
9323;DHT22;4700;48.822;9.270;2022-08-25T07:28:09;31.80;1.00
9323;DHT22;4700;48.822;9.270;2022-08-25T07:30:55;31.60;1.00
9323;DHT22;4700;48.822;9.270;2022-08-25T07:33:44;31.10;1.00
9323;DHT22;4700;48.822;9.270;2022-08-25T07:36:44;31.70;1.00
9323;DHT22;4700;48.822;9.270;2022-08-25T07:39:31;32.00;1.00
9323;DHT22;4700;48.822;9.270;2022-08-25T07:42:16;34.60;1.00
9323;DHT22;4700;48.822;9.270;2022-08-25T07:45:05;33.10;1.00
9323;DHT22;4700;48.822;9.270;2022-08-25T07:47:51;32.60;1.00
9323;DHT22;4700;48.822;9.270;2022-08-25T07:50:40;32.80;1.00
9323;DHT22;4700;48.822;9.270;2022-08-25T07:53:27;30.70;1.00
9323;DHT22;4700;48.822;9.270;2022-08-25T07:56:15;31.30;1.00
9323;DHT22;4700;48.822;9.270;2022-08-25T07:59:04;32.30;1.00
9323;DHT22;4700;48.822;9.270;2022-08-25T08:01:51;31.80;1.00
9323;DHT22;4700;48.822;9.270;2022-08-25T08:04:37;30.70;1.00
9323;DHT22;4700;48.822;9.270;2022-08-25T08:07:25;30.20;1.00
9323;DHT22;4700;48.822;9.270;2022-08-25T08:10:13;29.70;1.00
9323;DHT22;4700;48.822;9.270;2022-08-25T08:13:00;30.90;1.00
9323;DHT22;4700;48.822;9.270;2022-08-25T08:15:46;30.60;1.00
9323;DHT22;4700;48.822;9.270;2022-08-25T08:18:33;29.40;1.00
9323;DHT22;4700;48.822;9.270;2022-08-25T08:21:21;30.50;1.00
9323;DHT22;4700;48.822;9.270;2022-08-25T08:24:13;32.90;1.00
9323;DHT22;4700;48.822;9.270;2022-08-25T08:26:59;31.80;1.00
9323;DHT22;4700;48.822;9.270;2022-08-25T08:29:46;31.80;1.00
9323;DHT22;4700;48.822;9.270;2022-08-25T08:32:31;31.50;1.00
9323;DHT22;4700;48.822;9.270;2022-08-25T08:35:23;31.90;1.00
9323;DHT22;4700;48.822;9.270;2022-08-25T08:38:09;32.10;1.00
9323;DHT22;4700;48.822;9.270;2022-08-25T08:41:06;32.50;1.00
9323;DHT22;4700;48.822;9.270;2022-08-25T08:44:21;33.20;1.00
9323;DHT22;4700;48.822;9.270;2022-08-25T08:47:16;37.30;1.00
9323;DHT22;4700;48.822;9.270;2022-08-25T08:50:23;35.20;1.00
9323;DHT22;4700;48.822;9.270;2022-08-25T08:53:15;34.10;1.00
9323;DHT22;4700;48.822;9.270;2022-08-25T08:56:07;34.70;1.00
9323;DHT22;4700;48.822;9.270;2022-08-25T08:58:56;33.70;1.00
9323;DHT22;4700;48.822;9.270;2022-08-25T09:01:46;34.70;1.00
9323;DHT22;4700;48.822;9.270;2022-08-25T09:04:35;34.30;1.00
9323;DHT22;4700;48.822;9.270;2022-08-25T09:07:31;34.70;1.00
9323;DHT22;4700;48.822;9.270;2022-08-25T09:10:24;34.60;1.00
9323;DHT22;4700;48.822;9.270;2022-08-25T09:13:15;34.80;1.00
9323;DHT22;4700;48.822;9.270;2022-08-25T09:16:08;36.00;1.00
9323;DHT22;4700;48.822;9.270;2022-08-25T09:19:34;34.60;1.00
9323;DHT22;4700;48.822;9.270;2022-08-25T09:22:41;33.10;1.00
9323;DHT22;4700;48.822;9.270;2022-08-25T09:25:38;32.80;1.00
9323;DHT22;4700;48.822;9.270;2022-08-25T09:28:31;33.50;1.00
9323;DHT22;4700;48.822;9.270;2022-08-25T09:31:29;32.80;1.00
9323;DHT22;4700;48.822;9.270;2022-08-25T09:34:18;34.40;1.00
9323;DHT22;4700;48.822;9.270;2022-08-25T09:37:04;33.30;1.00
9323;DHT22;4700;48.822;9.270;2022-08-25T09:39:51;33.10;1.00
9323;DHT22;4700;48.822;9.270;2022-08-25T09:42:48;35.70;1.00
9323;DHT22;4700;48.822;9.270;2022-08-25T09:45:40;36.30;1.00
9323;DHT22;4700;48.822;9.270;2022-08-25T09:48:29;32.60;1.00
9323;DHT22;4700;48.822;9.270;2022-08-25T09:51:24;31.00;1.00
9323;DHT22;4700;48.822;9.270;2022-08-25T09:54:18;31.30;1.00
9323;DHT22;4700;48.822;9.270;2022-08-25T09:57:08;31.40;1.00
9323;DHT22;4700;48.822;9.270;2022-08-25T10:00:17;32.70;1.00
9323;DHT22;4700;48.822;9.270;2022-08-25T10:03:11;32.90;1.00
9323;DHT22;4700;48.822;9.270;2022-08-25T10:06:04;33.10;1.00
9323;DHT22;4700;48.822;9.270;2022-08-25T10:08:55;31.70;1.00
9323;DHT22;4700;48.822;9.270;2022-08-25T10:11:44;31.30;1.00
9323;DHT22;4700;48.822;9.270;2022-08-25T10:14:37;31.20;1.00
9323;DHT22;4700;48.822;9.270;2022-08-25T10:17:27;31.50;1.00
9323;DHT22;4700;48.822;9.270;2022-08-25T10:20:17;31.20;1.00
9323;DHT22;4700;48.822;9.270;2022-08-25T10:23:09;30.10;1.00
9323;DHT22;4700;48.822;9.270;2022-08-25T10:25:59;29.80;1.00
9323;DHT22;4700;48.822;9.270;2022-08-25T10:28:58;28.80;1.00
9323;DHT22;4700;48.822;9.270;2022-08-25T10:31:54;28.90;1.00
9323;DHT22;4700;48.822;9.270;2022-08-25T10:34:46;28.40;1.00
9323;DHT22;4700;48.822;9.270;2022-08-25T10:37:37;28.20;1.00
9323;DHT22;4700;48.822;9.270;2022-08-25T10:40:30;27.60;1.00
9323;DHT22;4700;48.822;9.270;2022-08-25T10:43:26;27.80;1.00
9323;DHT22;4700;48.822;9.270;2022-08-25T10:46:23;28.40;1.00
9323;DHT22;4700;48.822;9.270;2022-08-25T10:49:18;28.70;1.00
9323;DHT22;4700;48.822;9.270;2022-08-25T10:52:09;28.80;1.00
9323;DHT22;4700;48.822;9.270;2022-08-25T10:54:59;28.70;1.00
9323;DHT22;4700;48.822;9.270;2022-08-25T10:57:53;28.60;1.00
9323;DHT22;4700;48.822;9.270;2022-08-25T11:00:45;27.80;1.00
9323;DHT22;4700;48.822;9.270;2022-08-25T11:03:43;28.10;1.00
9323;DHT22;4700;48.822;9.270;2022-08-25T11:06:39;27.80;1.00
9323;DHT22;4700;48.822;9.270;2022-08-25T11:09:29;28.00;1.00
9323;DHT22;4700;48.822;9.270;2022-08-25T11:12:10;27.80;1.00
9323;DHT22;4700;48.822;9.270;2022-08-25T11:15:00;27.60;1.00
9323;DHT22;4700;48.822;9.270;2022-08-25T11:17:50;28.10;1.00
9323;DHT22;4700;48.822;9.270;2022-08-25T11:20:42;28.50;1.00
9323;DHT22;4700;48.822;9.270;2022-08-25T11:23:35;28.70;1.00
9323;DHT22;4700;48.822;9.270;2022-08-25T11:26:28;28.80;1.00
9323;DHT22;4700;48.822;9.270;2022-08-25T11:29:19;28.80;1.00
9323;DHT22;4700;48.822;9.270;2022-08-25T11:32:06;28.60;1.00
9323;DHT22;4700;48.822;9.270;2022-08-25T11:34:53;28.20;1.00
9323;DHT22;4700;48.822;9.270;2022-08-25T11:37:45;28.30;1.00
9323;DHT22;4700;48.822;9.270;2022-08-25T11:40:46;28.80;1.00
9323;DHT22;4700;48.822;9.270;2022-08-25T11:43:49;28.50;1.00
9323;DHT22;4700;48.822;9.270;2022-08-25T11:46:50;28.00;1.00
9323;DHT22;4700;48.822;9.270;2022-08-25T11:49:49;28.20;1.00
9323;DHT22;4700;48.822;9.270;2022-08-25T11:52:45;28.50;1.00
9323;DHT22;4700;48.822;9.270;2022-08-25T11:55:48;28.90;1.00
9323;DHT22;4700;48.822;9.270;2022-08-25T11:58:46;29.30;1.00
9323;DHT22;4700;48.822;9.270;2022-08-25T12:01:58;29.20;1.00
9323;DHT22;4700;48.822;9.270;2022-08-25T12:04:44;29.20;1.00
9323;DHT22;4700;48.822;9.270;2022-08-25T12:07:58;29.20;1.00
9323;DHT22;4700;48.822;9.270;2022-08-25T12:11:05;28.70;1.00
9323;DHT22;4700;48.822;9.270;2022-08-25T12:13:52;28.90;1.00
9323;DHT22;4700;48.822;9.270;2022-08-25T12:17:05;29.10;1.00
9323;DHT22;4700;48.822;9.270;2022-08-25T12:19:57;29.10;1.00
9323;DHT22;4700;48.822;9.270;2022-08-25T12:22:54;29.20;1.00
9323;DHT22;4700;48.822;9.270;2022-08-25T12:25:45;29.50;1.00
9323;DHT22;4700;48.822;9.270;2022-08-25T12:28:46;29.20;1.00
9323;DHT22;4700;48.822;9.270;2022-08-25T12:31:51;29.20;1.00
9323;DHT22;4700;48.822;9.270;2022-08-25T12:35:01;29.40;1.00
9323;DHT22;4700;48.822;9.270;2022-08-25T12:37:59;29.20;1.00
9323;DHT22;4700;48.822;9.270;2022-08-25T12:40:57;29.00;1.00
9323;DHT22;4700;48.822;9.270;2022-08-25T12:43:47;29.10;1.00
9323;DHT22;4700;48.822;9.270;2022-08-25T12:46:37;29.10;1.00
9323;DHT22;4700;48.822;9.270;2022-08-25T12:49:32;29.30;1.00
9323;DHT22;4700;48.822;9.270;2022-08-25T12:52:21;29.30;1.00
9323;DHT22;4700;48.822;9.270;2022-08-25T12:55:10;29.30;1.00
9323;DHT22;4700;48.822;9.270;2022-08-25T12:57:58;29.00;1.00
9323;DHT22;4700;48.822;9.270;2022-08-25T13:00:56;29.30;1.00
9323;DHT22;4700;48.822;9.270;2022-08-25T13:04:26;29.50;1.00
9323;DHT22;4700;48.822;9.270;2022-08-25T13:07:25;29.60;1.00
9323;DHT22;4700;48.822;9.270;2022-08-25T13:10:27;29.60;1.00
9323;DHT22;4700;48.822;9.270;2022-08-25T13:13:22;29.70;1.00
9323;DHT22;4700;48.822;9.270;2022-08-25T13:16:20;30.00;1.00
9323;DHT22;4700;48.822;9.270;2022-08-25T13:19:17;30.20;1.00
9323;DHT22;4700;48.822;9.270;2022-08-25T13:22:12;29.90;1.00
9323;DHT22;4700;48.822;9.270;2022-08-25T13:25:00;29.90;1.00
9323;DHT22;4700;48.822;9.270;2022-08-25T13:27:50;29.50;1.00
9323;DHT22;4700;48.822;9.270;2022-08-25T13:30:37;29.50;1.00
9323;DHT22;4700;48.822;9.270;2022-08-25T13:33:24;29.70;1.00
9323;DHT22;4700;48.822;9.270;2022-08-25T13:36:15;29.60;1.00
9323;DHT22;4700;48.822;9.270;2022-08-25T13:39:22;29.20;1.00
9323;DHT22;4700;48.822;9.270;2022-08-25T13:42:14;29.10;1.00
9323;DHT22;4700;48.822;9.270;2022-08-25T13:45:00;29.00;1.00
9323;DHT22;4700;48.822;9.270;2022-08-25T13:47:49;29.20;1.00
9323;DHT22;4700;48.822;9.270;2022-08-25T13:50:40;29.10;1.00
9323;DHT22;4700;48.822;9.270;2022-08-25T13:53:27;29.10;1.00
9323;DHT22;4700;48.822;9.270;2022-08-25T13:56:23;28.90;1.00
9323;DHT22;4700;48.822;9.270;2022-08-25T13:59:20;28.80;1.00
9323;DHT22;4700;48.822;9.270;2022-08-25T14:02:09;28.90;1.00
9323;DHT22;4700;48.822;9.270;2022-08-25T14:04:54;28.60;1.00
9323;DHT22;4700;48.822;9.270;2022-08-25T14:07:52;28.50;1.00
9323;DHT22;4700;48.822;9.270;2022-08-25T14:10:40;28.40;1.00
9323;DHT22;4700;48.822;9.270;2022-08-25T14:13:29;28.50;1.00
9323;DHT22;4700;48.822;9.270;2022-08-25T14:16:19;28.50;1.00
9323;DHT22;4700;48.822;9.270;2022-08-25T14:19:14;28.40;1.00
9323;DHT22;4700;48.822;9.270;2022-08-25T14:22:04;28.40;1.00
9323;DHT22;4700;48.822;9.270;2022-08-25T14:24:53;28.20;1.00
9323;DHT22;4700;48.822;9.270;2022-08-25T14:27:41;28.10;1.00
9323;DHT22;4700;48.822;9.270;2022-08-25T14:30:28;28.20;1.00
9323;DHT22;4700;48.822;9.270;2022-08-25T14:33:15;28.10;1.00
9323;DHT22;4700;48.822;9.270;2022-08-25T14:36:02;28.20;1.00
9323;DHT22;4700;48.822;9.270;2022-08-25T14:38:49;28.10;1.00
9323;DHT22;4700;48.822;9.270;2022-08-25T14:41:40;28.10;1.00
9323;DHT22;4700;48.822;9.270;2022-08-25T14:44:26;28.10;1.00
9323;DHT22;4700;48.822;9.270;2022-08-25T14:47:12;28.10;1.00
9323;DHT22;4700;48.822;9.270;2022-08-25T14:49:58;28.10;1.00
9323;DHT22;4700;48.822;9.270;2022-08-25T14:52:48;28.00;1.00
9323;DHT22;4700;48.822;9.270;2022-08-25T14:55:34;28.10;1.00
9323;DHT22;4700;48.822;9.270;2022-08-25T14:58:21;28.10;1.00
9323;DHT22;4700;48.822;9.270;2022-08-25T15:01:07;28.10;1.00
9323;DHT22;4700;48.822;9.270;2022-08-25T15:03:57;28.10;1.00
9323;DHT22;4700;48.822;9.270;2022-08-25T15:06:51;28.10;1.00
9323;DHT22;4700;48.822;9.270;2022-08-25T15:09:38;28.10;1.00
9323;DHT22;4700;48.822;9.270;2022-08-25T15:12:23;28.30;1.00
9323;DHT22;4700;48.822;9.270;2022-08-25T15:15:10;28.50;1.00
9323;DHT22;4700;48.822;9.270;2022-08-25T15:17:57;28.60;1.00
9323;DHT22;4700;48.822;9.270;2022-08-25T15:20:43;28.60;1.00
9323;DHT22;4700;48.822;9.270;2022-08-25T15:23:28;28.60;1.00
9323;DHT22;4700;48.822;9.270;2022-08-25T15:26:15;28.50;1.00
9323;DHT22;4700;48.822;9.270;2022-08-25T15:29:02;28.40;1.00
9323;DHT22;4700;48.822;9.270;2022-08-25T15:31:49;28.30;1.00
9323;DHT22;4700;48.822;9.270;2022-08-25T15:34:35;28.20;1.00
9323;DHT22;4700;48.822;9.270;2022-08-25T15:37:22;28.10;1.00
9323;DHT22;4700;48.822;9.270;2022-08-25T15:40:08;28.10;1.00
9323;DHT22;4700;48.822;9.270;2022-08-25T15:42:54;28.10;1.00
9323;DHT22;4700;48.822;9.270;2022-08-25T15:45:40;28.40;1.00
9323;DHT22;4700;48.822;9.270;2022-08-25T15:48:28;28.60;1.00
9323;DHT22;4700;48.822;9.270;2022-08-25T15:51:14;28.80;1.00
9323;DHT22;4700;48.822;9.270;2022-08-25T15:54:05;29.00;1.00
9323;DHT22;4700;48.822;9.270;2022-08-25T15:56:51;29.10;1.00
9323;DHT22;4700;48.822;9.270;2022-08-25T15:59:37;29.30;1.00
9323;DHT22;4700;48.822;9.270;2022-08-25T16:02:23;29.30;1.00
9323;DHT22;4700;48.822;9.270;2022-08-25T16:05:11;29.30;1.00
9323;DHT22;4700;48.822;9.270;2022-08-25T16:07:57;29.20;1.00
9323;DHT22;4700;48.822;9.270;2022-08-25T16:10:42;29.20;1.00
9323;DHT22;4700;48.822;9.270;2022-08-25T16:13:28;29.20;1.00
9323;DHT22;4700;48.822;9.270;2022-08-25T16:16:17;29.30;1.00
9323;DHT22;4700;48.822;9.270;2022-08-25T16:19:04;29.20;1.00
9323;DHT22;4700;48.822;9.270;2022-08-25T16:21:51;29.20;1.00
9323;DHT22;4700;48.822;9.270;2022-08-25T16:24:37;29.20;1.00
9323;DHT22;4700;48.822;9.270;2022-08-25T16:27:24;29.20;1.00
9323;DHT22;4700;48.822;9.270;2022-08-25T16:30:11;29.10;1.00
9323;DHT22;4700;48.822;9.270;2022-08-25T16:32:57;29.10;1.00
9323;DHT22;4700;48.822;9.270;2022-08-25T16:35:43;29.10;1.00
9323;DHT22;4700;48.822;9.270;2022-08-25T16:38:30;29.00;1.00
9323;DHT22;4700;48.822;9.270;2022-08-25T16:41:18;29.00;1.00
9323;DHT22;4700;48.822;9.270;2022-08-25T16:44:05;28.90;1.00
9323;DHT22;4700;48.822;9.270;2022-08-25T16:46:52;28.70;1.00
9323;DHT22;4700;48.822;9.270;2022-08-25T16:49:38;28.50;1.00
9323;DHT22;4700;48.822;9.270;2022-08-25T16:52:24;28.40;1.00
9323;DHT22;4700;48.822;9.270;2022-08-25T16:55:29;28.30;1.00
9323;DHT22;4700;48.822;9.270;2022-08-25T16:58:16;28.20;1.00
9323;DHT22;4700;48.822;9.270;2022-08-25T17:01:05;28.20;1.00
9323;DHT22;4700;48.822;9.270;2022-08-25T17:03:52;28.10;1.00
9323;DHT22;4700;48.822;9.270;2022-08-25T17:06:41;28.10;1.00
9323;DHT22;4700;48.822;9.270;2022-08-25T17:09:26;28.10;1.00
9323;DHT22;4700;48.822;9.270;2022-08-25T17:12:16;28.00;1.00
9323;DHT22;4700;48.822;9.270;2022-08-25T17:15:04;27.90;1.00
9323;DHT22;4700;48.822;9.270;2022-08-25T17:17:53;27.90;1.00
9323;DHT22;4700;48.822;9.270;2022-08-25T17:20:40;27.80;1.00
9323;DHT22;4700;48.822;9.270;2022-08-25T17:23:26;27.70;1.00
9323;DHT22;4700;48.822;9.270;2022-08-25T17:26:14;27.70;1.00
9323;DHT22;4700;48.822;9.270;2022-08-25T17:29:01;27.80;1.00
9323;DHT22;4700;48.822;9.270;2022-08-25T17:31:47;27.80;1.00
9323;DHT22;4700;48.822;9.270;2022-08-25T17:34:34;27.70;1.00
9323;DHT22;4700;48.822;9.270;2022-08-25T17:37:20;27.60;1.00
9323;DHT22;4700;48.822;9.270;2022-08-25T17:40:06;27.50;1.00
9323;DHT22;4700;48.822;9.270;2022-08-25T17:42:53;27.40;1.00
9323;DHT22;4700;48.822;9.270;2022-08-25T17:45:40;27.30;1.00
9323;DHT22;4700;48.822;9.270;2022-08-25T17:48:27;27.30;1.00
9323;DHT22;4700;48.822;9.270;2022-08-25T17:51:13;27.30;1.00
9323;DHT22;4700;48.822;9.270;2022-08-25T17:53:59;27.10;1.00
9323;DHT22;4700;48.822;9.270;2022-08-25T17:56:44;27.00;1.00
9323;DHT22;4700;48.822;9.270;2022-08-25T17:59:30;27.00;1.00
9323;DHT22;4700;48.822;9.270;2022-08-25T18:02:17;26.90;1.00
9323;DHT22;4700;48.822;9.270;2022-08-25T18:05:04;26.90;1.00
9323;DHT22;4700;48.822;9.270;2022-08-25T18:07:49;26.90;1.00
9323;DHT22;4700;48.822;9.270;2022-08-25T18:10:38;26.90;1.00
9323;DHT22;4700;48.822;9.270;2022-08-25T18:13:23;26.80;1.00
9323;DHT22;4700;48.822;9.270;2022-08-25T18:16:10;26.80;1.00
9323;DHT22;4700;48.822;9.270;2022-08-25T18:18:57;26.60;1.00
9323;DHT22;4700;48.822;9.270;2022-08-25T18:21:43;26.40;1.00
9323;DHT22;4700;48.822;9.270;2022-08-25T18:24:29;26.20;1.00
9323;DHT22;4700;48.822;9.270;2022-08-25T18:27:15;26.10;1.00
9323;DHT22;4700;48.822;9.270;2022-08-25T18:30:02;25.90;1.00
9323;DHT22;4700;48.822;9.270;2022-08-25T18:32:49;25.70;1.00
9323;DHT22;4700;48.822;9.270;2022-08-25T18:35:37;25.50;1.00
9323;DHT22;4700;48.822;9.270;2022-08-25T18:38:23;25.30;1.00
9323;DHT22;4700;48.822;9.270;2022-08-25T18:41:26;25.20;1.00
9323;DHT22;4700;48.822;9.270;2022-08-25T18:44:17;25.30;1.00
9323;DHT22;4700;48.822;9.270;2022-08-25T18:47:03;25.40;1.00